sensor_id;sensor_type;location;lat;lon;timestamp;pressure;altitude;pressure_sealevel;temperature;humidity
69035;BME280;56091;55.756;37.412;2023-07-09T00:04:51;98747.78;;;18.44;61.90
69035;BME280;56091;55.756;37.412;2023-07-09T00:09:53;98756.47;;;18.46;61.37
69035;BME280;56091;55.756;37.412;2023-07-09T00:14:54;98755.50;;;18.42;61.27
69035;BME280;56091;55.756;37.412;2023-07-09T00:20:00;98747.44;;;18.37;62.51
69035;BME280;56091;55.756;37.412;2023-07-09T00:25:04;98689.59;;;18.09;61.86
69035;BME280;56091;55.756;37.412;2023-07-09T00:30:12;98747.47;;;18.46;61.07
69035;BME280;56091;55.756;37.412;2023-07-09T00:35:18;98743.91;;;18.45;61.30
69035;BME280;56091;55.756;37.412;2023-07-09T00:40:22;98745.84;;;18.45;61.59
69035;BME280;56091;55.756;37.412;2023-07-09T00:45:26;98742.63;;;18.43;60.48
69035;BME280;56091;55.756;37.412;2023-07-09T00:50:45;98726.91;;;18.31;61.72
69035;BME280;56091;55.756;37.412;2023-07-09T00:56:39;98725.28;;;18.21;62.63
69035;BME280;56091;55.756;37.412;2023-07-09T01:01:41;98719.13;;;18.07;63.53
69035;BME280;56091;55.756;37.412;2023-07-09T01:06:48;98708.53;;;17.97;64.07
69035;BME280;56091;55.756;37.412;2023-07-09T01:11:50;98706.56;;;17.88;63.90
69035;BME280;56091;55.756;37.412;2023-07-09T01:17:00;98717.94;;;17.82;64.94
69035;BME280;56091;55.756;37.412;2023-07-09T01:22:04;98711.81;;;17.76;64.95
69035;BME280;56091;55.756;37.412;2023-07-09T01:27:06;98707.28;;;17.71;64.61
69035;BME280;56091;55.756;37.412;2023-07-09T01:32:07;98714.19;;;17.69;65.02
69035;BME280;56091;55.756;37.412;2023-07-09T01:37:08;98722.06;;;17.70;66.61
69035;BME280;56091;55.756;37.412;2023-07-09T01:42:10;98707.59;;;17.70;66.63
69035;BME280;56091;55.756;37.412;2023-07-09T01:47:13;98704.06;;;17.69;65.86
69035;BME280;56091;55.756;37.412;2023-07-09T01:52:17;98686.13;;;17.68;64.68
69035;BME280;56091;55.756;37.412;2023-07-09T01:57:21;98706.75;;;17.92;64.61
69035;BME280;56091;55.756;37.412;2023-07-09T02:02:24;98719.28;;;18.02;63.68
69035;BME280;56091;55.756;37.412;2023-07-09T02:07:25;98708.56;;;18.23;62.94
69035;BME280;56091;55.756;37.412;2023-07-09T02:12:28;98707.13;;;18.34;62.48
69035;BME280;56091;55.756;37.412;2023-07-09T02:17:30;98705.22;;;18.34;62.11
69035;BME280;56091;55.756;37.412;2023-07-09T02:22:31;98700.41;;;18.40;60.57
69035;BME280;56091;55.756;37.412;2023-07-09T02:27:34;98700.53;;;18.44;59.65
69035;BME280;56091;55.756;37.412;2023-07-09T02:32:36;98700.22;;;18.45;59.44
69035;BME280;56091;55.756;37.412;2023-07-09T02:37:38;98697.50;;;18.54;61.05
69035;BME280;56091;55.756;37.412;2023-07-09T02:42:39;98698.94;;;18.51;59.09
69035;BME280;56091;55.756;37.412;2023-07-09T02:47:40;98698.16;;;18.60;60.30
69035;BME280;56091;55.756;37.412;2023-07-09T02:52:42;98695.59;;;18.63;59.88
69035;BME280;56091;55.756;37.412;2023-07-09T02:57:43;98704.91;;;18.71;60.97
69035;BME280;56091;55.756;37.412;2023-07-09T03:02:44;98706.47;;;18.72;58.66
69035;BME280;56091;55.756;37.412;2023-07-09T03:07:44;98696.50;;;18.76;58.56
69035;BME280;56091;55.756;37.412;2023-07-09T03:12:45;98695.91;;;18.88;59.02
69035;BME280;56091;55.756;37.412;2023-07-09T03:17:46;98693.78;;;19.02;57.26
69035;BME280;56091;55.756;37.412;2023-07-09T03:22:47;98689.09;;;19.11;57.75
69035;BME280;56091;55.756;37.412;2023-07-09T03:27:48;98685.84;;;19.27;57.25
69035;BME280;56091;55.756;37.412;2023-07-09T03:32:49;98683.41;;;19.25;55.94
69035;BME280;56091;55.756;37.412;2023-07-09T03:37:50;98684.59;;;19.16;56.49
69035;BME280;56091;55.756;37.412;2023-07-09T03:42:51;98689.72;;;19.17;56.67
69035;BME280;56091;55.756;37.412;2023-07-09T03:47:52;98688.22;;;19.37;56.42
69035;BME280;56091;55.756;37.412;2023-07-09T03:52:53;98678.88;;;19.38;55.43
69035;BME280;56091;55.756;37.412;2023-07-09T03:57:55;98680.03;;;19.37;55.78
69035;BME280;56091;55.756;37.412;2023-07-09T04:02:56;98688.84;;;19.43;54.77
69035;BME280;56091;55.756;37.412;2023-07-09T04:07:59;98683.19;;;19.48;56.35
69035;BME280;56091;55.756;37.412;2023-07-09T04:13:00;98692.22;;;19.48;56.02
69035;BME280;56091;55.756;37.412;2023-07-09T04:18:03;98691.03;;;19.58;56.50
69035;BME280;56091;55.756;37.412;2023-07-09T04:23:05;98688.56;;;19.74;56.22
69035;BME280;56091;55.756;37.412;2023-07-09T04:28:07;98684.06;;;19.69;55.26
69035;BME280;56091;55.756;37.412;2023-07-09T04:33:11;98688.38;;;19.79;55.41
69035;BME280;56091;55.756;37.412;2023-07-09T04:38:12;98686.44;;;20.09;54.18
69035;BME280;56091;55.756;37.412;2023-07-09T04:43:13;98675.63;;;20.34;53.43
69035;BME280;56091;55.756;37.412;2023-07-09T04:48:14;98667.94;;;20.48;53.20
69035;BME280;56091;55.756;37.412;2023-07-09T04:53:15;98667.81;;;20.66;52.94
69035;BME280;56091;55.756;37.412;2023-07-09T04:58:17;98654.28;;;20.82;51.78
69035;BME280;56091;55.756;37.412;2023-07-09T05:03:19;98633.34;;;20.65;52.00
69035;BME280;56091;55.756;37.412;2023-07-09T05:08:20;98658.78;;;20.99;51.20
69035;BME280;56091;55.756;37.412;2023-07-09T05:13:22;98653.31;;;21.11;50.15
69035;BME280;56091;55.756;37.412;2023-07-09T05:18:23;98654.22;;;21.03;50.80
69035;BME280;56091;55.756;37.412;2023-07-09T05:23:25;98647.97;;;21.15;50.25
69035;BME280;56091;55.756;37.412;2023-07-09T05:28:27;98639.19;;;21.34;49.06
69035;BME280;56091;55.756;37.412;2023-07-09T05:33:28;98643.56;;;21.47;47.74
69035;BME280;56091;55.756;37.412;2023-07-09T05:38:29;98652.47;;;21.56;47.59
69035;BME280;56091;55.756;37.412;2023-07-09T05:43:30;98649.97;;;21.51;47.57
69035;BME280;56091;55.756;37.412;2023-07-09T05:48:32;98652.16;;;21.58;46.96
69035;BME280;56091;55.756;37.412;2023-07-09T05:53:34;98645.63;;;21.75;45.85
69035;BME280;56091;55.756;37.412;2023-07-09T05:58:41;98643.44;;;21.80;43.94
69035;BME280;56091;55.756;37.412;2023-07-09T06:03:41;98651.53;;;21.89;42.81
69035;BME280;56091;55.756;37.412;2023-07-09T06:08:43;98645.13;;;21.97;43.09
69035;BME280;56091;55.756;37.412;2023-07-09T06:13:46;98632.97;;;22.11;42.48
69035;BME280;56091;55.756;37.412;2023-07-09T06:18:48;98641.34;;;22.02;42.53
69035;BME280;56091;55.756;37.412;2023-07-09T06:23:49;98639.91;;;21.80;41.65
69035;BME280;56091;55.756;37.412;2023-07-09T06:28:50;98643.44;;;21.80;42.38
69035;BME280;56091;55.756;37.412;2023-07-09T06:33:51;98630.97;;;21.83;41.73
69035;BME280;56091;55.756;37.412;2023-07-09T06:38:51;98634.25;;;22.01;40.36
69035;BME280;56091;55.756;37.412;2023-07-09T06:43:52;98629.69;;;22.05;41.69
69035;BME280;56091;55.756;37.412;2023-07-09T06:48:53;98628.88;;;22.05;41.47
69035;BME280;56091;55.756;37.412;2023-07-09T06:53:54;98628.41;;;22.27;40.40
69035;BME280;56091;55.756;37.412;2023-07-09T06:58:55;98622.09;;;22.55;40.27
69035;BME280;56091;55.756;37.412;2023-07-09T07:03:56;98606.34;;;22.68;40.59
69035;BME280;56091;55.756;37.412;2023-07-09T07:08:57;98604.66;;;22.63;39.84
69035;BME280;56091;55.756;37.412;2023-07-09T07:13:58;98601.22;;;22.82;39.78
69035;BME280;56091;55.756;37.412;2023-07-09T07:18:59;98591.59;;;23.36;39.00
69035;BME280;56091;55.756;37.412;2023-07-09T07:23:59;98584.88;;;23.69;37.87
69035;BME280;56091;55.756;37.412;2023-07-09T07:29:00;98588.94;;;23.75;37.60
69035;BME280;56091;55.756;37.412;2023-07-09T07:34:01;98578.94;;;24.41;36.88
69035;BME280;56091;55.756;37.412;2023-07-09T07:39:02;98582.75;;;24.75;36.01
69035;BME280;56091;55.756;37.412;2023-07-09T07:44:03;98584.56;;;24.87;36.08
69035;BME280;56091;55.756;37.412;2023-07-09T07:49:04;98584.44;;;25.03;35.60
69035;BME280;56091;55.756;37.412;2023-07-09T07:54:05;98574.94;;;25.24;34.97
69035;BME280;56091;55.756;37.412;2023-07-09T07:59:06;98574.16;;;25.23;34.54
69035;BME280;56091;55.756;37.412;2023-07-09T08:04:07;98567.25;;;25.13;33.99
69035;BME280;56091;55.756;37.412;2023-07-09T08:09:08;98570.22;;;24.78;34.47
69035;BME280;56091;55.756;37.412;2023-07-09T08:14:10;98567.09;;;24.80;34.98
69035;BME280;56091;55.756;37.412;2023-07-09T08:19:11;98561.50;;;24.53;36.10
69035;BME280;56091;55.756;37.412;2023-07-09T08:24:12;98562.50;;;24.25;35.70
69035;BME280;56091;55.756;37.412;2023-07-09T08:29:14;98563.50;;;24.56;34.87
69035;BME280;56091;55.756;37.412;2023-07-09T08:34:15;98564.75;;;24.82;34.63
69035;BME280;56091;55.756;37.412;2023-07-09T08:39:16;98546.38;;;24.66;35.29
69035;BME280;56091;55.756;37.412;2023-07-09T08:44:40;98541.75;;;24.31;35.56
69035;BME280;56091;55.756;37.412;2023-07-09T08:49:59;98540.03;;;24.23;35.39
69035;BME280;56091;55.756;37.412;2023-07-09T08:55:06;98530.00;;;24.77;34.27
69035;BME280;56091;55.756;37.412;2023-07-09T09:00:18;98521.72;;;25.00;34.04
69035;BME280;56091;55.756;37.412;2023-07-09T09:05:23;98515.47;;;24.38;33.84
69035;BME280;56091;55.756;37.412;2023-07-09T09:10:33;98525.22;;;24.31;34.04
69035;BME280;56091;55.756;37.412;2023-07-09T09:15:43;98517.41;;;24.76;33.82
69035;BME280;56091;55.756;37.412;2023-07-09T09:20:57;98512.28;;;25.24;32.66
69035;BME280;56091;55.756;37.412;2023-07-09T09:26:14;98500.91;;;25.86;32.59
69035;BME280;56091;55.756;37.412;2023-07-09T09:31:17;98486.31;;;25.56;32.36
69035;BME280;56091;55.756;37.412;2023-07-09T09:36:25;98492.34;;;25.35;33.47
69035;BME280;56091;55.756;37.412;2023-07-09T09:41:36;98503.06;;;25.17;33.85
69035;BME280;56091;55.756;37.412;2023-07-09T09:46:40;98490.31;;;25.62;33.54
69035;BME280;56091;55.756;37.412;2023-07-09T09:51:44;98484.34;;;26.20;32.24
69035;BME280;56091;55.756;37.412;2023-07-09T09:56:48;98486.69;;;26.18;32.21
69035;BME280;56091;55.756;37.412;2023-07-09T10:01:59;98489.16;;;25.93;32.63
69035;BME280;56091;55.756;37.412;2023-07-09T10:07:06;98482.84;;;25.93;32.92
69035;BME280;56091;55.756;37.412;2023-07-09T10:39:16;98467.13;;;26.38;31.65
69035;BME280;56091;55.756;37.412;2023-07-09T10:44:22;98460.63;;;25.85;32.93
69035;BME280;56091;55.756;37.412;2023-07-09T10:49:32;98465.22;;;25.74;32.42
69035;BME280;56091;55.756;37.412;2023-07-09T11:00:19;98456.59;;;26.09;32.20
69035;BME280;56091;55.756;37.412;2023-07-09T11:05:21;98455.25;;;25.96;32.33
69035;BME280;56091;55.756;37.412;2023-07-09T11:10:30;98461.25;;;25.71;33.29
69035;BME280;56091;55.756;37.412;2023-07-09T11:15:37;98450.53;;;25.36;33.73
69035;BME280;56091;55.756;37.412;2023-07-09T11:20:45;98443.53;;;25.76;34.15
69035;BME280;56091;55.756;37.412;2023-07-09T11:26:02;98442.59;;;25.95;33.60
69035;BME280;56091;55.756;37.412;2023-07-09T11:31:14;98427.31;;;26.01;33.23
69035;BME280;56091;55.756;37.412;2023-07-09T11:36:26;98450.03;;;25.57;34.44
69035;BME280;56091;55.756;37.412;2023-07-09T11:41:43;98452.34;;;24.98;32.49
69035;BME280;56091;55.756;37.412;2023-07-09T11:47:20;98438.16;;;25.53;31.60
69035;BME280;56091;55.756;37.412;2023-07-09T11:52:34;98441.88;;;25.68;31.70
69035;BME280;56091;55.756;37.412;2023-07-09T11:57:36;98383.53;;;25.36;31.33
69035;BME280;56091;55.756;37.412;2023-07-09T12:02:38;98434.03;;;25.40;32.42
69035;BME280;56091;55.756;37.412;2023-07-09T12:07:39;98436.16;;;25.84;31.87
69035;BME280;56091;55.756;37.412;2023-07-09T12:12:41;98425.34;;;26.02;32.81
69035;BME280;56091;55.756;37.412;2023-07-09T12:17:42;98420.88;;;26.76;31.99
69035;BME280;56091;55.756;37.412;2023-07-09T12:22:43;98421.59;;;28.45;30.02
69035;BME280;56091;55.756;37.412;2023-07-09T12:27:44;98419.41;;;29.74;27.95
69035;BME280;56091;55.756;37.412;2023-07-09T12:32:50;98426.59;;;30.87;26.06
69035;BME280;56091;55.756;37.412;2023-07-09T12:37:52;98425.13;;;29.24;27.41
69035;BME280;56091;55.756;37.412;2023-07-09T12:42:53;98411.69;;;28.83;28.08
69035;BME280;56091;55.756;37.412;2023-07-09T12:47:56;98406.19;;;31.01;25.67
69035;BME280;56091;55.756;37.412;2023-07-09T12:53:03;98418.34;;;31.56;25.25
69035;BME280;56091;55.756;37.412;2023-07-09T12:58:09;98393.19;;;30.87;25.95
69035;BME280;56091;55.756;37.412;2023-07-09T13:03:14;98402.78;;;30.30;25.69
69035;BME280;56091;55.756;37.412;2023-07-09T13:08:15;98407.97;;;30.35;25.52
69035;BME280;56091;55.756;37.412;2023-07-09T13:13:19;98392.59;;;30.16;25.64
69035;BME280;56091;55.756;37.412;2023-07-09T13:18:20;98394.69;;;32.97;22.39
69035;BME280;56091;55.756;37.412;2023-07-09T13:23:27;98388.06;;;31.58;24.31
69035;BME280;56091;55.756;37.412;2023-07-09T13:28:30;98377.34;;;29.76;26.95
69035;BME280;56091;55.756;37.412;2023-07-09T13:33:31;98389.53;;;28.54;29.06
69035;BME280;56091;55.756;37.412;2023-07-09T13:38:32;98393.66;;;27.51;30.38
69035;BME280;56091;55.756;37.412;2023-07-09T13:43:35;98374.75;;;26.91;31.41
69035;BME280;56091;55.756;37.412;2023-07-09T13:48:38;98376.28;;;26.81;31.85
69035;BME280;56091;55.756;37.412;2023-07-09T13:53:39;98375.41;;;27.39;31.88
69035;BME280;56091;55.756;37.412;2023-07-09T13:58:40;98383.34;;;26.75;32.32
69035;BME280;56091;55.756;37.412;2023-07-09T14:03:44;98378.47;;;27.23;32.27
69035;BME280;56091;55.756;37.412;2023-07-09T14:08:45;98381.22;;;27.20;32.64
69035;BME280;56091;55.756;37.412;2023-07-09T14:13:46;98366.56;;;28.29;29.73
69035;BME280;56091;55.756;37.412;2023-07-09T14:18:52;98368.19;;;30.39;26.80
69035;BME280;56091;55.756;37.412;2023-07-09T14:23:53;98357.66;;;31.06;25.16
69035;BME280;56091;55.756;37.412;2023-07-09T14:28:54;98372.88;;;28.47;28.96
69035;BME280;56091;55.756;37.412;2023-07-09T14:34:30;98352.88;;;27.37;30.33
69035;BME280;56091;55.756;37.412;2023-07-09T14:39:29;98355.47;;;27.08;31.62
69035;BME280;56091;55.756;37.412;2023-07-09T14:44:31;98357.63;;;27.37;30.70
69035;BME280;56091;55.756;37.412;2023-07-09T14:49:33;98358.09;;;26.80;31.92
69035;BME280;56091;55.756;37.412;2023-07-09T14:54:34;98343.88;;;31.57;24.64
69035;BME280;56091;55.756;37.412;2023-07-09T14:59:38;98361.31;;;29.17;28.33
69035;BME280;56091;55.756;37.412;2023-07-09T15:04:40;98370.25;;;27.31;31.04
69035;BME280;56091;55.756;37.412;2023-07-09T15:09:43;98360.56;;;25.62;33.98
69035;BME280;56091;55.756;37.412;2023-07-09T15:14:45;98366.41;;;25.57;34.81
69035;BME280;56091;55.756;37.412;2023-07-09T15:19:46;98371.81;;;25.46;34.95
69035;BME280;56091;55.756;37.412;2023-07-09T15:24:47;98366.50;;;25.30;35.40
69035;BME280;56091;55.756;37.412;2023-07-09T15:29:49;98364.94;;;24.75;36.61
69035;BME280;56091;55.756;37.412;2023-07-09T15:34:50;98334.97;;;24.70;36.81
69035;BME280;56091;55.756;37.412;2023-07-09T15:39:51;98356.66;;;24.72;37.73
69035;BME280;56091;55.756;37.412;2023-07-09T15:44:52;98367.13;;;24.40;38.60
69035;BME280;56091;55.756;37.412;2023-07-09T15:49:53;98350.31;;;23.99;39.87
69035;BME280;56091;55.756;37.412;2023-07-09T15:54:56;98356.41;;;23.88;39.95
69035;BME280;56091;55.756;37.412;2023-07-09T15:59:57;98352.00;;;23.84;39.62
69035;BME280;56091;55.756;37.412;2023-07-09T16:04:58;98347.31;;;25.41;36.50
69035;BME280;56091;55.756;37.412;2023-07-09T16:09:59;98354.38;;;24.78;36.95
69035;BME280;56091;55.756;37.412;2023-07-09T16:15:00;98361.31;;;24.22;37.93
69035;BME280;56091;55.756;37.412;2023-07-09T16:20:00;98354.13;;;26.29;34.30
69035;BME280;56091;55.756;37.412;2023-07-09T16:25:13;98332.75;;;27.48;32.10
69035;BME280;56091;55.756;37.412;2023-07-09T16:30:15;98370.97;;;26.13;34.67
69035;BME280;56091;55.756;37.412;2023-07-09T16:35:19;98352.13;;;25.47;35.79
69035;BME280;56091;55.756;37.412;2023-07-09T16:40:23;98352.41;;;24.28;38.02
69035;BME280;56091;55.756;37.412;2023-07-09T16:45:25;98363.34;;;24.02;38.75
69035;BME280;56091;55.756;37.412;2023-07-09T16:50:28;98364.94;;;23.80;39.39
69035;BME280;56091;55.756;37.412;2023-07-09T16:55:29;98356.31;;;23.81;39.16
69035;BME280;56091;55.756;37.412;2023-07-09T17:00:32;98351.97;;;23.41;40.14
69035;BME280;56091;55.756;37.412;2023-07-09T17:05:35;98352.97;;;23.13;41.06
69035;BME280;56091;55.756;37.412;2023-07-09T17:10:38;98373.72;;;22.75;42.22
69035;BME280;56091;55.756;37.412;2023-07-09T17:15:42;98359.97;;;22.75;42.42
69035;BME280;56091;55.756;37.412;2023-07-09T17:20:43;98363.88;;;22.74;42.42
69035;BME280;56091;55.756;37.412;2023-07-09T17:25:44;98358.88;;;22.80;42.59
69035;BME280;56091;55.756;37.412;2023-07-09T17:30:49;98304.91;;;22.05;43.32
69035;BME280;56091;55.756;37.412;2023-07-09T17:35:51;98365.75;;;22.22;44.13
69035;BME280;56091;55.756;37.412;2023-07-09T17:40:53;98369.91;;;22.00;44.66
69035;BME280;56091;55.756;37.412;2023-07-09T17:45:54;98379.34;;;21.71;44.82
69035;BME280;56091;55.756;37.412;2023-07-09T17:50:58;98335.59;;;21.34;44.96
69035;BME280;56091;55.756;37.412;2023-07-09T17:56:00;98370.63;;;21.41;45.63
69035;BME280;56091;55.756;37.412;2023-07-09T18:06:04;98381.44;;;21.21;46.51
69035;BME280;56091;55.756;37.412;2023-07-09T18:11:04;98376.75;;;21.22;46.76
69035;BME280;56091;55.756;37.412;2023-07-09T18:16:05;98381.34;;;21.05;47.28
69035;BME280;56091;55.756;37.412;2023-07-09T18:21:11;98380.34;;;20.98;47.41
69035;BME280;56091;55.756;37.412;2023-07-09T18:26:13;98378.88;;;20.88;47.27
69035;BME280;56091;55.756;37.412;2023-07-09T18:31:15;98382.53;;;20.80;47.55
69035;BME280;56091;55.756;37.412;2023-07-09T18:36:16;98389.84;;;20.63;48.20
69035;BME280;56091;55.756;37.412;2023-07-09T18:41:17;98393.03;;;20.53;48.31
69035;BME280;56091;55.756;37.412;2023-07-09T18:46:18;98403.88;;;20.50;48.39
69035;BME280;56091;55.756;37.412;2023-07-09T18:51:22;98393.84;;;20.41;49.09
69035;BME280;56091;55.756;37.412;2023-07-09T18:56:25;98390.97;;;20.38;49.22
69035;BME280;56091;55.756;37.412;2023-07-09T19:01:33;98384.47;;;20.42;49.88
69035;BME280;56091;55.756;37.412;2023-07-09T19:06:33;98384.91;;;20.44;49.74
69035;BME280;56091;55.756;37.412;2023-07-09T19:11:35;98384.59;;;20.34;50.62
69035;BME280;56091;55.756;37.412;2023-07-09T19:16:37;98382.94;;;20.20;51.24
69035;BME280;56091;55.756;37.412;2023-07-09T19:21:38;98354.41;;;19.97;52.22
69035;BME280;56091;55.756;37.412;2023-07-09T19:26:38;98374.16;;;20.02;52.06
69035;BME280;56091;55.756;37.412;2023-07-09T19:31:41;98368.44;;;19.95;52.67
69035;BME280;56091;55.756;37.412;2023-07-09T19:36:43;98369.59;;;19.94;53.06
69035;BME280;56091;55.756;37.412;2023-07-09T19:41:44;98375.47;;;19.84;53.21
69035;BME280;56091;55.756;37.412;2023-07-09T19:46:44;98365.69;;;19.83;52.98
69035;BME280;56091;55.756;37.412;2023-07-09T19:51:45;98357.72;;;19.90;53.05
69035;BME280;56091;55.756;37.412;2023-07-09T19:56:46;98358.47;;;19.78;53.52
69035;BME280;56091;55.756;37.412;2023-07-09T20:01:49;98342.00;;;19.66;53.34
69035;BME280;56091;55.756;37.412;2023-07-09T20:06:50;98341.59;;;19.76;53.60
69035;BME280;56091;55.756;37.412;2023-07-09T20:11:51;98354.19;;;19.68;54.16
69035;BME280;56091;55.756;37.412;2023-07-09T20:16:52;98349.53;;;19.69;54.28
69035;BME280;56091;55.756;37.412;2023-07-09T20:21:53;98347.88;;;19.56;54.90
69035;BME280;56091;55.756;37.412;2023-07-09T20:26:54;98339.78;;;19.47;55.10
69035;BME280;56091;55.756;37.412;2023-07-09T20:31:55;98353.06;;;19.36;55.90
69035;BME280;56091;55.756;37.412;2023-07-09T20:36:57;98350.47;;;19.19;56.38
69035;BME280;56091;55.756;37.412;2023-07-09T20:41:59;98349.75;;;19.09;57.53
69035;BME280;56091;55.756;37.412;2023-07-09T20:47:00;98343.41;;;18.97;57.77
69035;BME280;56091;55.756;37.412;2023-07-09T20:52:03;98337.69;;;18.89;58.13
69035;BME280;56091;55.756;37.412;2023-07-09T20:57:13;98348.13;;;18.87;58.17
69035;BME280;56091;55.756;37.412;2023-07-09T21:02:20;98347.09;;;18.71;58.70
69035;BME280;56091;55.756;37.412;2023-07-09T21:07:25;98326.47;;;18.52;58.51
69035;BME280;56091;55.756;37.412;2023-07-09T21:12:26;98345.41;;;18.58;59.11
69035;BME280;56091;55.756;37.412;2023-07-09T21:17:29;98329.63;;;18.33;59.17
69035;BME280;56091;55.756;37.412;2023-07-09T21:22:33;98331.56;;;18.33;59.68
69035;BME280;56091;55.756;37.412;2023-07-09T21:27:33;98339.75;;;18.33;59.15
69035;BME280;56091;55.756;37.412;2023-07-09T21:32:34;98331.13;;;18.22;59.22
69035;BME280;56091;55.756;37.412;2023-07-09T21:37:35;98332.13;;;18.18;59.14
69035;BME280;56091;55.756;37.412;2023-07-09T21:42:36;98320.78;;;18.07;59.58
69035;BME280;56091;55.756;37.412;2023-07-09T21:47:37;98328.03;;;17.94;60.01
69035;BME280;56091;55.756;37.412;2023-07-09T21:52:40;98323.41;;;17.86;60.22
69035;BME280;56091;55.756;37.412;2023-07-09T21:57:47;98333.19;;;17.87;60.38
69035;BME280;56091;55.756;37.412;2023-07-09T22:02:50;98341.22;;;17.74;60.21
69035;BME280;56091;55.756;37.412;2023-07-09T22:07:51;98334.00;;;17.70;60.61
69035;BME280;56091;55.756;37.412;2023-07-09T22:12:55;98334.69;;;17.58;60.67
69035;BME280;56091;55.756;37.412;2023-07-09T22:17:56;98322.53;;;17.38;60.87
69035;BME280;56091;55.756;37.412;2023-07-09T22:22:58;98320.28;;;17.40;61.54
69035;BME280;56091;55.756;37.412;2023-07-09T22:28:00;98330.56;;;17.34;62.22
69035;BME280;56091;55.756;37.412;2023-07-09T22:33:01;98309.41;;;17.23;63.14
69035;BME280;56091;55.756;37.412;2023-07-09T22:38:02;98342.09;;;17.31;63.71
69035;BME280;56091;55.756;37.412;2023-07-09T22:43:02;98335.53;;;17.24;64.68
69035;BME280;56091;55.756;37.412;2023-07-09T22:48:04;98330.56;;;17.08;65.58
69035;BME280;56091;55.756;37.412;2023-07-09T22:53:12;98323.19;;;17.00;66.37
69035;BME280;56091;55.756;37.412;2023-07-09T22:58:15;98331.66;;;16.90;66.76
69035;BME280;56091;55.756;37.412;2023-07-09T23:03:22;98332.31;;;16.87;67.18
69035;BME280;56091;55.756;37.412;2023-07-09T23:08:26;98315.94;;;16.78;67.60
69035;BME280;56091;55.756;37.412;2023-07-09T23:13:37;98313.38;;;16.73;67.99
69035;BME280;56091;55.756;37.412;2023-07-09T23:18:38;98310.97;;;16.63;68.63
69035;BME280;56091;55.756;37.412;2023-07-09T23:23:39;98314.13;;;16.56;68.87
69035;BME280;56091;55.756;37.412;2023-07-09T23:28:40;98309.66;;;16.51;69.37
69035;BME280;56091;55.756;37.412;2023-07-09T23:33:43;98310.44;;;16.52;69.54
69035;BME280;56091;55.756;37.412;2023-07-09T23:38:44;98300.81;;;16.37;70.13
69035;BME280;56091;55.756;37.412;2023-07-09T23:43:45;98314.75;;;16.35;70.38
69035;BME280;56091;55.756;37.412;2023-07-09T23:48:47;98310.91;;;16.28;71.30
69035;BME280;56091;55.756;37.412;2023-07-09T23:53:48;98270.94;;;15.97;71.54
69035;BME280;56091;55.756;37.412;2023-07-09T23:58:51;98297.56;;;16.17;71.88
